TimeEST,TemperatureF,Dew PointF,Humidity,Sea Level PressureIn,VisibilityMPH,Wind Direction,Wind SpeedMPH,Gust SpeedMPH,PrecipitationIn,Events,Conditions,WindDirDegrees,DateUTC
12:52 AM,33.1,19.0,56,29.97,10.0,North,8.1,-,N/A,,Overcast,360,2012-11-08 05:52:00
1:52 AM,33.1,19.9,59,29.96,10.0,North,6.9,-,N/A,,Overcast,360,2012-11-08 06:52:00
2:52 AM,30.9,25.0,79,29.95,8.0,North,9.2,-,0.00,,Overcast,350,2012-11-08 07:52:00
3:52 AM,30.0,26.1,85,29.94,4.0,NNW,6.9,-,0.00,Snow,Light Snow,340,2012-11-08 08:52:00
4:52 AM,30.0,26.1,85,29.92,6.0,NNW,6.9,-,0.00,,Overcast,340,2012-11-08 09:52:00
5:52 AM,30.0,26.1,85,29.91,3.0,NNW,6.9,-,0.00,Snow,Light Snow,340,2012-11-08 10:52:00
6:52 AM,30.9,27.0,85,29.92,3.0,NW,4.6,-,0.00,Snow,Light Snow,320,2012-11-08 11:52:00
7:01 AM,30.2,26.6,86,29.87,2.0,Calm,Calm,-,0.00,Snow,Light Snow,0,2012-11-08 12:01:00
7:29 AM,30.2,28.4,93,29.87,3.0,NNW,4.6,-,0.00,Snow,Light Snow,340,2012-11-08 12:29:00
7:52 AM,32.0,28.0,85,29.91,6.0,NNW,4.6,-,0.00,Snow,Light Snow,340,2012-11-08 12:52:00
8:00 AM,32.0,28.4,87,29.87,3.0,North,5.8,-,0.00,Snow,Light Snow,350,2012-11-08 13:00:00
8:07 AM,32.0,28.4,87,29.87,2.0,North,8.1,-,0.00,Snow,Light Snow,350,2012-11-08 13:07:00
8:30 AM,33.8,28.4,81,29.87,4.0,North,6.9,-,0.00,Snow,Light Snow,350,2012-11-08 13:30:00
8:52 AM,34.0,28.9,82,29.91,2.5,North,5.8,-,0.00,Snow,Light Snow,360,2012-11-08 13:52:00
9:00 AM,33.8,28.4,81,29.87,4.0,NNW,6.9,-,0.00,Snow,Light Snow,340,2012-11-08 14:00:00
9:25 AM,35.6,28.4,75,29.87,2.5,North,11.5,-,0.00,Snow,Light Snow,360,2012-11-08 14:25:00
9:52 AM,35.1,30.0,82,29.90,2.5,North,9.2,-,0.00,Snow,Light Snow,360,2012-11-08 14:52:00
10:24 AM,35.6,30.2,81,29.86,4.0,North,11.5,-,0.00,Snow,Light Snow,360,2012-11-08 15:24:00
10:48 AM,35.6,28.4,75,29.85,8.0,North,6.9,-,0.00,Snow,Light Snow,360,2012-11-08 15:48:00
10:52 AM,35.1,30.0,82,29.88,5.0,Variable,5.8,-,0.00,Snow,Light Snow,0,2012-11-08 15:52:00
10:59 AM,35.6,28.4,75,29.84,1.8,North,9.2,-,0.00,Snow,Light Snow,360,2012-11-08 15:59:00
11:09 AM,35.6,30.2,81,29.84,1.2,North,9.2,-,0.00,Snow,Light Snow,350,2012-11-08 16:09:00
11:33 AM,33.8,30.2,87,29.83,0.8,North,5.8,-,0.01,Snow,Light Snow,350,2012-11-08 16:33:00
11:40 AM,33.8,30.2,87,29.83,1.0,North,3.5,-,0.01,Snow,Light Snow,350,2012-11-08 16:40:00
11:45 AM,33.8,30.2,87,29.83,2.0,NNW,5.8,-,0.01,Snow,Light Snow,340,2012-11-08 16:45:00
11:52 AM,35.1,30.9,85,29.86,4.0,North,5.8,-,0.01,Snow,Light Snow,350,2012-11-08 16:52:00
12:43 PM,35.6,30.2,81,29.81,6.0,NNW,6.9,-,0.00,Snow,Light Snow,340,2012-11-08 17:43:00
12:52 PM,35.1,30.0,82,29.85,9.0,North,6.9,-,0.00,,Overcast,350,2012-11-08 17:52:00
1:52 PM,36.0,28.9,76,29.85,10.0,North,6.9,-,0.00,,Overcast,350,2012-11-08 18:52:00
2:50 PM,35.6,28.4,75,29.82,1.8,North,3.5,-,0.00,Snow,Light Snow,360,2012-11-08 19:50:00
2:52 PM,35.1,30.0,82,29.86,1.0,Variable,3.5,-,0.01,Snow,Light Snow,0,2012-11-08 19:52:00
2:55 PM,33.8,30.2,87,29.82,0.8,NNW,3.5,-,0.00,Snow,Light Snow,330,2012-11-08 19:55:00
3:08 PM,33.8,30.2,87,29.82,1.0,Calm,Calm,-,0.02,Snow,Light Snow,0,2012-11-08 20:08:00
3:18 PM,33.8,30.2,87,29.83,2.0,Calm,Calm,-,0.03,Snow,Light Snow,0,2012-11-08 20:18:00
3:28 PM,33.8,30.2,87,29.83,3.0,Calm,Calm,-,0.03,Snow,Light Snow,0,2012-11-08 20:28:00
3:35 PM,33.8,30.2,87,29.83,2.0,Calm,Calm,-,0.03,Snow,Light Snow,0,2012-11-08 20:35:00
3:52 PM,34.0,30.0,85,29.87,3.0,NW,3.5,-,0.03,Snow,Light Snow,320,2012-11-08 20:52:00
4:10 PM,33.8,30.2,87,29.82,2.5,Calm,Calm,-,0.00,Snow,Light Snow,0,2012-11-08 21:10:00
4:28 PM,33.8,30.2,87,29.83,5.0,Calm,Calm,-,0.00,Snow,Light Snow,0,2012-11-08 21:28:00
4:40 PM,33.8,30.2,87,29.83,5.0,NNW,3.5,-,0.00,Snow,Light Snow,330,2012-11-08 21:40:00
4:52 PM,34.0,30.9,89,29.87,7.0,NNW,3.5,-,0.00,Snow,Light Snow,330,2012-11-08 21:52:00
5:41 PM,33.8,30.2,87,29.84,2.5,NW,3.5,-,0.01,Snow,Light Snow,320,2012-11-08 22:41:00
5:52 PM,34.0,30.9,89,29.88,2.0,NNW,4.6,-,0.01,Snow,Light Snow,330,2012-11-08 22:52:00
6:02 PM,33.8,30.2,87,29.84,1.5,NW,3.5,-,0.00,Snow,Light Snow,320,2012-11-08 23:02:00
6:10 PM,33.8,30.2,87,29.84,1.2,Calm,Calm,-,0.01,Snow,Light Snow,0,2012-11-08 23:10:00
6:22 PM,33.8,30.2,87,29.84,2.0,Calm,Calm,-,0.01,Snow,Light Snow,0,2012-11-08 23:22:00
6:31 PM,33.8,32.0,93,29.84,3.0,Calm,Calm,-,0.01,Snow,Light Snow,0,2012-11-08 23:31:00
6:52 PM,33.1,32.0,96,29.88,8.0,Calm,Calm,-,0.01,Snow,Light Snow,0,2012-11-08 23:52:00
7:52 PM,33.1,30.9,92,29.88,10.0,Calm,Calm,-,0.01,,Overcast,0,2012-11-09 00:52:00
8:52 PM,34.0,30.0,85,29.88,10.0,Calm,Calm,-,N/A,,Overcast,0,2012-11-09 01:52:00
9:52 PM,34.0,30.0,85,29.88,10.0,Calm,Calm,-,0.00,,Overcast,0,2012-11-09 02:52:00
10:52 PM,34.0,28.9,82,29.87,10.0,NNW,5.8,-,N/A,,Overcast,330,2012-11-09 03:52:00
11:02 PM,33.8,28.4,81,29.83,10.0,NNW,4.6,-,N/A,,Overcast,340,2012-11-09 04:02:00
11:52 PM,33.1,27.0,78,29.87,10.0,Variable,6.9,-,N/A,,Overcast,0,2012-11-09 04:52:00